ALK104 VRMM-VCBI
Flight info
| Callsign | ALK104 |
|---|---|
| Flight time | 1h 10m |
| Altitude | 39000 |
| Route | HOKEY1A HOKEY M512 TELIG LALUM1A |
| Aircraft | A20N/M-SDE2E3FGHIRWXY/LB1 |
Departure
| Time | 2026-04-22 11:55 |
|---|---|
| Airport | Velana International Airport (VRMM) |
Arrival
| Time | 2026-04-22 13:05 |
|---|---|
| Airport | Bandaranaike International Colombo Airport (VCBI) |
| Time | Latitude | Longitude | Altitude | Speed | Heading |
|---|---|---|---|---|---|
| 2026-04-22 11:32 | 4.18872 | 73.52795 | 16 ft | 0 kts | 269° |
| 2026-04-22 11:46 | 4.18872 | 73.52804 | 15 ft | 3 kts | 269° |
| 2026-04-22 11:46 | 4.18873 | 73.52822 | 16 ft | 3 kts | 269° |
| 2026-04-22 11:46 | 4.18877 | 73.52839 | 17 ft | 3 kts | 231° |
| 2026-04-22 11:46 | 4.18891 | 73.52850 | 18 ft | 3 kts | 192° |
| 2026-04-22 11:47 | 4.18896 | 73.52851 | 18 ft | 0 kts | 181° |
| 2026-04-22 11:50 | 4.18884 | 73.52851 | 17 ft | 4 kts | 180° |
| 2026-04-22 11:50 | 4.18834 | 73.52851 | 15 ft | 10 kts | 179° |
| 2026-04-22 11:50 | 4.18745 | 73.52853 | 17 ft | 14 kts | 177° |
| 2026-04-22 11:51 | 4.18654 | 73.52855 | 15 ft | 11 kts | 179° |
| 2026-04-22 11:51 | 4.18607 | 73.52903 | 15 ft | 10 kts | 110° |
| 2026-04-22 11:51 | 4.18550 | 73.52926 | 15 ft | 9 kts | 178° |
| 2026-04-22 11:51 | 4.18474 | 73.52929 | 17 ft | 14 kts | 178° |
| 2026-04-22 11:52 | 4.18372 | 73.52928 | 16 ft | 17 kts | 178° |
| 2026-04-22 11:52 | 4.18254 | 73.52930 | 16 ft | 13 kts | 181° |
| 2026-04-22 11:52 | 4.18198 | 73.52978 | 15 ft | 0 kts | 97° |
| 2026-04-22 11:53 | 4.18197 | 73.52982 | 16 ft | 2 kts | 95° |
| 2026-04-22 11:53 | 4.18197 | 73.53034 | 18 ft | 14 kts | 88° |
| 2026-04-22 11:53 | 4.18255 | 73.53103 | 16 ft | 16 kts | 4° |
| 2026-04-22 11:53 | 4.18415 | 73.53103 | 16 ft | 29 kts | 360° |
| 2026-04-22 11:54 | 4.18522 | 73.53103 | 16 ft | 0 kts | 360° |
| 2026-04-22 11:54 | 4.18648 | 73.53103 | 16 ft | 49 kts | 0° |
| 2026-04-22 11:54 | 4.19211 | 73.53103 | 16 ft | 111 kts | 0° |
| 2026-04-22 11:54 | 4.20167 | 73.53103 | 18 ft | 161 kts | 0° |
| 2026-04-22 11:55 | 4.21299 | 73.53105 | 477 ft | 160 kts | 2° |
| 2026-04-22 11:55 | 4.22407 | 73.53115 | 1050 ft | 160 kts | 0° |
| 2026-04-22 11:55 | 4.23516 | 73.53112 | 1639 ft | 159 kts | 359° |
| 2026-04-22 11:55 | 4.24695 | 73.53100 | 2100 ft | 181 kts | 360° |
| 2026-04-22 11:56 | 4.26017 | 73.53098 | 2640 ft | 200 kts | 0° |
| 2026-04-22 11:56 | 4.27510 | 73.53111 | 3024 ft | 229 kts | 1° |
| 2026-04-22 11:56 | 4.29183 | 73.53134 | 3517 ft | 252 kts | 1° |
| 2026-04-22 11:56 | 4.30979 | 73.53157 | 4160 ft | 263 kts | 1° |
| 2026-04-22 11:57 | 4.32835 | 73.53148 | 4869 ft | 270 kts | 359° |
| 2026-04-22 11:57 | 4.34725 | 73.53119 | 5674 ft | 273 kts | 360° |
| 2026-04-22 11:57 | 4.36634 | 73.53097 | 6451 ft | 276 kts | 0° |
| 2026-04-22 11:57 | 4.38557 | 73.53187 | 7174 ft | 279 kts | 11° |
| 2026-04-22 11:58 | 4.40358 | 73.53887 | 7902 ft | 281 kts | 35° |
| 2026-04-22 11:58 | 4.41677 | 73.55315 | 8642 ft | 283 kts | 61° |
| 2026-04-22 11:58 | 4.42235 | 73.57202 | 9392 ft | 286 kts | 84° |
| 2026-04-22 11:58 | 4.42319 | 73.59180 | 10090 ft | 290 kts | 86° |
| 2026-04-22 11:59 | 4.42672 | 73.61215 | 10470 ft | 306 kts | 74° |
| 2026-04-22 11:59 | 4.43312 | 73.63313 | 10767 ft | 323 kts | 71° |
| 2026-04-22 11:59 | 4.44058 | 73.65508 | 11246 ft | 332 kts | 70° |
| 2026-04-22 11:59 | 4.44814 | 73.67680 | 11813 ft | 337 kts | 70° |
| 2026-04-22 12:00 | 4.45595 | 73.69914 | 12419 ft | 342 kts | 70° |
| 2026-04-22 12:00 | 4.46386 | 73.72177 | 13019 ft | 346 kts | 70° |
| 2026-04-22 12:00 | 4.47187 | 73.74467 | 13629 ft | 350 kts | 70° |
| 2026-04-22 12:00 | 4.47996 | 73.76780 | 14184 ft | 354 kts | 70° |
| 2026-04-22 12:01 | 4.48812 | 73.79115 | 14759 ft | 357 kts | 70° |
| 2026-04-22 12:01 | 4.49638 | 73.81476 | 15334 ft | 360 kts | 70° |
| 2026-04-22 12:01 | 4.50469 | 73.83854 | 15911 ft | 363 kts | 70° |
| 2026-04-22 12:01 | 4.51309 | 73.86257 | 16488 ft | 367 kts | 70° |
| 2026-04-22 12:02 | 4.52155 | 73.88677 | 17044 ft | 370 kts | 70° |
| 2026-04-22 12:02 | 4.53009 | 73.91122 | 17596 ft | 373 kts | 70° |
| 2026-04-22 12:02 | 4.53591 | 73.92789 | 17953 ft | 376 kts | 70° |
| 2026-04-22 12:02 | 4.54457 | 73.95268 | 18407 ft | 379 kts | 70° |
| 2026-04-22 12:03 | 4.55332 | 73.97774 | 18830 ft | 382 kts | 70° |
| 2026-04-22 12:03 | 4.56214 | 74.00298 | 19254 ft | 385 kts | 71° |
| 2026-04-22 12:03 | 4.57102 | 74.02841 | 19675 ft | 388 kts | 71° |
| 2026-04-22 12:03 | 4.57985 | 74.05370 | 20094 ft | 391 kts | 71° |
| 2026-04-22 12:04 | 4.58885 | 74.07949 | 20516 ft | 394 kts | 71° |
| 2026-04-22 12:04 | 4.59794 | 74.10551 | 20953 ft | 397 kts | 71° |
| 2026-04-22 12:04 | 4.60709 | 74.13174 | 21392 ft | 400 kts | 71° |
| 2026-04-22 12:04 | 4.61629 | 74.15813 | 21837 ft | 403 kts | 71° |
| 2026-04-22 12:05 | 4.62558 | 74.18474 | 22282 ft | 406 kts | 71° |
| 2026-04-22 12:05 | 4.63493 | 74.21155 | 22724 ft | 409 kts | 71° |
| 2026-04-22 12:05 | 4.64434 | 74.23852 | 23168 ft | 412 kts | 72° |
| 2026-04-22 12:05 | 4.65384 | 74.26574 | 23583 ft | 415 kts | 72° |
| 2026-04-22 12:06 | 4.66339 | 74.29314 | 23948 ft | 418 kts | 72° |
| 2026-04-22 12:06 | 4.67302 | 74.32077 | 24326 ft | 421 kts | 72° |
| 2026-04-22 12:06 | 4.68270 | 74.34854 | 24715 ft | 424 kts | 72° |
| 2026-04-22 12:06 | 4.69245 | 74.37649 | 25097 ft | 426 kts | 72° |
| 2026-04-22 12:07 | 4.70225 | 74.40461 | 25482 ft | 429 kts | 72° |
| 2026-04-22 12:07 | 4.71210 | 74.43289 | 25856 ft | 431 kts | 72° |
| 2026-04-22 12:07 | 4.72201 | 74.46133 | 26229 ft | 433 kts | 72° |
| 2026-04-22 12:07 | 4.73196 | 74.48988 | 26591 ft | 435 kts | 72° |
| 2026-04-22 12:08 | 4.74196 | 74.51860 | 26957 ft | 437 kts | 72° |
| 2026-04-22 12:08 | 4.75200 | 74.54745 | 27316 ft | 439 kts | 72° |
| 2026-04-22 12:08 | 4.76209 | 74.57643 | 27668 ft | 441 kts | 72° |
| 2026-04-22 12:08 | 4.77223 | 74.60554 | 28018 ft | 443 kts | 72° |
| 2026-04-22 12:09 | 4.78240 | 74.63476 | 28359 ft | 445 kts | 72° |
| 2026-04-22 12:09 | 4.79260 | 74.66405 | 28709 ft | 446 kts | 72° |
| 2026-04-22 12:09 | 4.80284 | 74.69349 | 29028 ft | 448 kts | 72° |
| 2026-04-22 12:09 | 4.81314 | 74.72309 | 29352 ft | 450 kts | 72° |
| 2026-04-22 12:10 | 4.82348 | 74.75281 | 29666 ft | 452 kts | 72° |
| 2026-04-22 12:10 | 4.83385 | 74.78262 | 29955 ft | 454 kts | 72° |
| 2026-04-22 12:10 | 4.84428 | 74.81260 | 30210 ft | 456 kts | 73° |
| 2026-04-22 12:10 | 4.85477 | 74.84276 | 30451 ft | 459 kts | 73° |
| 2026-04-22 12:11 | 4.86528 | 74.87299 | 30693 ft | 461 kts | 73° |
| 2026-04-22 12:11 | 4.87587 | 74.90344 | 30920 ft | 463 kts | 73° |
| 2026-04-22 12:11 | 4.88648 | 74.93399 | 31145 ft | 465 kts | 73° |
| 2026-04-22 12:11 | 4.89700 | 74.96426 | 31429 ft | 466 kts | 73° |
| 2026-04-22 12:12 | 4.90765 | 74.99491 | 31741 ft | 466 kts | 73° |
| 2026-04-22 12:12 | 4.91832 | 75.02561 | 32052 ft | 466 kts | 73° |
| 2026-04-22 12:12 | 4.92896 | 75.05626 | 32348 ft | 466 kts | 73° |
| 2026-04-22 12:12 | 4.93963 | 75.08699 | 32639 ft | 467 kts | 74° |
| 2026-04-22 12:13 | 4.95029 | 75.11771 | 32930 ft | 467 kts | 74° |
| 2026-04-22 12:13 | 4.96096 | 75.14844 | 33236 ft | 467 kts | 74° |
| 2026-04-22 12:13 | 4.97161 | 75.17915 | 33549 ft | 466 kts | 74° |
| 2026-04-22 12:13 | 4.98227 | 75.20988 | 33842 ft | 466 kts | 74° |
| 2026-04-22 12:14 | 4.99291 | 75.24053 | 34113 ft | 465 kts | 74° |
| 2026-04-22 12:14 | 5.00352 | 75.27113 | 34401 ft | 464 kts | 75° |
| 2026-04-22 12:14 | 5.01411 | 75.30166 | 34690 ft | 463 kts | 75° |
| 2026-04-22 12:14 | 5.02467 | 75.33210 | 34964 ft | 462 kts | 75° |
| 2026-04-22 12:15 | 5.03520 | 75.36248 | 35219 ft | 461 kts | 75° |
| 2026-04-22 12:15 | 5.04570 | 75.39280 | 35480 ft | 460 kts | 75° |
| 2026-04-22 12:15 | 5.05620 | 75.42308 | 35731 ft | 460 kts | 75° |
| 2026-04-22 12:15 | 5.06669 | 75.45336 | 35959 ft | 459 kts | 75° |
| 2026-04-22 12:16 | 5.07716 | 75.48360 | 36176 ft | 459 kts | 75° |
| 2026-04-22 12:16 | 5.08763 | 75.51382 | 36399 ft | 459 kts | 75° |
| 2026-04-22 12:16 | 5.09809 | 75.54402 | 36613 ft | 458 kts | 75° |
| 2026-04-22 12:16 | 5.10854 | 75.57420 | 36827 ft | 458 kts | 75° |
| 2026-04-22 12:17 | 5.11898 | 75.60436 | 37035 ft | 458 kts | 75° |
| 2026-04-22 12:17 | 5.12943 | 75.63456 | 37236 ft | 457 kts | 75° |
| 2026-04-22 12:17 | 5.13985 | 75.66468 | 37442 ft | 457 kts | 75° |
| 2026-04-22 12:17 | 5.15027 | 75.69479 | 37630 ft | 457 kts | 75° |
| 2026-04-22 12:18 | 5.16069 | 75.72492 | 37816 ft | 457 kts | 75° |
| 2026-04-22 12:18 | 5.17111 | 75.75504 | 37997 ft | 457 kts | 75° |
| 2026-04-22 12:18 | 5.18153 | 75.78515 | 38172 ft | 457 kts | 75° |
| 2026-04-22 12:18 | 5.19194 | 75.81527 | 38333 ft | 457 kts | 75° |
| 2026-04-22 12:19 | 5.20235 | 75.84538 | 38494 ft | 457 kts | 75° |
| 2026-04-22 12:19 | 5.21275 | 75.87547 | 38627 ft | 457 kts | 75° |
| 2026-04-22 12:19 | 5.22318 | 75.90563 | 38735 ft | 457 kts | 75° |
| 2026-04-22 12:19 | 5.23360 | 75.93577 | 38794 ft | 458 kts | 75° |
| 2026-04-22 12:20 | 5.25426 | 75.99554 | 38801 ft | 455 kts | 75° |
| 2026-04-22 12:20 | 5.27496 | 76.05551 | 38803 ft | 455 kts | 75° |
| 2026-04-22 12:21 | 5.29567 | 76.11549 | 38805 ft | 455 kts | 75° |
| 2026-04-22 12:21 | 5.31637 | 76.17550 | 38804 ft | 455 kts | 75° |
| 2026-04-22 12:22 | 5.33707 | 76.23550 | 38805 ft | 455 kts | 75° |
| 2026-04-22 12:22 | 5.35780 | 76.29558 | 38808 ft | 456 kts | 75° |
| 2026-04-22 12:23 | 5.37851 | 76.35565 | 38807 ft | 455 kts | 75° |
| 2026-04-22 12:23 | 5.39921 | 76.41569 | 38806 ft | 455 kts | 75° |
| 2026-04-22 12:24 | 5.41990 | 76.47574 | 38807 ft | 455 kts | 75° |
| 2026-04-22 12:24 | 5.44056 | 76.53573 | 38807 ft | 455 kts | 75° |
| 2026-04-22 12:25 | 5.46123 | 76.59574 | 38808 ft | 455 kts | 75° |
| 2026-04-22 12:25 | 5.48187 | 76.65571 | 38807 ft | 455 kts | 75° |
| 2026-04-22 12:26 | 5.50252 | 76.71572 | 38806 ft | 455 kts | 75° |
| 2026-04-22 12:26 | 5.52315 | 76.77572 | 38806 ft | 455 kts | 75° |
| 2026-04-22 12:27 | 5.54379 | 76.83574 | 38809 ft | 455 kts | 75° |
| 2026-04-22 12:27 | 5.56442 | 76.89575 | 38810 ft | 455 kts | 75° |
| 2026-04-22 12:28 | 5.58505 | 76.95580 | 38808 ft | 455 kts | 75° |
| 2026-04-22 12:28 | 5.60568 | 77.01587 | 38809 ft | 455 kts | 75° |
| 2026-04-22 12:29 | 5.62632 | 77.07597 | 38811 ft | 456 kts | 75° |
| 2026-04-22 12:29 | 5.64681 | 77.13570 | 38808 ft | 456 kts | 75° |
| 2026-04-22 12:30 | 5.67776 | 77.22593 | 38808 ft | 456 kts | 75° |
| 2026-04-22 12:31 | 5.69838 | 77.28605 | 38807 ft | 456 kts | 75° |
| 2026-04-22 12:31 | 5.71900 | 77.34621 | 38808 ft | 456 kts | 75° |
| 2026-04-22 12:32 | 5.73961 | 77.40637 | 38810 ft | 456 kts | 75° |
| 2026-04-22 12:32 | 5.77054 | 77.49667 | 38812 ft | 456 kts | 75° |
| 2026-04-22 12:33 | 5.79116 | 77.55691 | 38809 ft | 456 kts | 75° |
| 2026-04-22 12:33 | 5.81176 | 77.61712 | 38812 ft | 456 kts | 75° |
| 2026-04-22 12:34 | 5.83237 | 77.67735 | 38812 ft | 456 kts | 75° |
| 2026-04-22 12:34 | 5.85294 | 77.73753 | 38807 ft | 456 kts | 75° |
| 2026-04-22 12:35 | 5.87351 | 77.79770 | 38810 ft | 456 kts | 75° |
| 2026-04-22 12:35 | 5.89407 | 77.85789 | 38809 ft | 456 kts | 75° |
| 2026-04-22 12:36 | 5.91450 | 77.91770 | 38809 ft | 456 kts | 75° |
| 2026-04-22 12:36 | 5.93505 | 77.97791 | 38808 ft | 455 kts | 75° |
| 2026-04-22 12:37 | 5.95558 | 78.03806 | 38809 ft | 455 kts | 75° |
| 2026-04-22 12:37 | 5.97608 | 78.09816 | 38810 ft | 455 kts | 75° |
| 2026-04-22 12:38 | 5.99659 | 78.15832 | 38807 ft | 455 kts | 75° |
| 2026-04-22 12:38 | 6.01708 | 78.21840 | 38811 ft | 455 kts | 75° |
| 2026-04-22 12:39 | 6.04779 | 78.30855 | 38811 ft | 455 kts | 75° |
| 2026-04-22 12:40 | 6.06833 | 78.36888 | 38811 ft | 457 kts | 75° |
| 2026-04-22 12:40 | 6.08889 | 78.42928 | 38808 ft | 457 kts | 75° |
| 2026-04-22 12:41 | 6.10944 | 78.48968 | 38806 ft | 457 kts | 75° |
| 2026-04-22 12:41 | 6.13189 | 78.54944 | 38389 ft | 462 kts | 66° |
| 2026-04-22 12:41 | 6.14934 | 78.57698 | 37551 ft | 473 kts | 54° |
| 2026-04-22 12:42 | 6.17241 | 78.60088 | 36829 ft | 481 kts | 43° |
| 2026-04-22 12:42 | 6.19855 | 78.62213 | 36115 ft | 484 kts | 40° |
| 2026-04-22 12:42 | 6.22531 | 78.64284 | 35377 ft | 487 kts | 40° |
| 2026-04-22 12:42 | 6.25230 | 78.66364 | 34643 ft | 490 kts | 40° |
| 2026-04-22 12:43 | 6.27929 | 78.68451 | 34118 ft | 488 kts | 40° |
| 2026-04-22 12:43 | 6.30611 | 78.70532 | 33519 ft | 486 kts | 40° |
| 2026-04-22 12:43 | 6.33281 | 78.72609 | 32911 ft | 484 kts | 40° |
| 2026-04-22 12:43 | 6.35932 | 78.74674 | 32340 ft | 481 kts | 40° |
| 2026-04-22 12:44 | 6.38565 | 78.76727 | 31772 ft | 478 kts | 39° |
| 2026-04-22 12:44 | 6.41114 | 78.78851 | 31144 ft | 474 kts | 47° |
| 2026-04-22 12:44 | 6.43306 | 78.81296 | 30630 ft | 467 kts | 52° |
| 2026-04-22 12:44 | 6.45341 | 78.83796 | 30070 ft | 456 kts | 52° |
| 2026-04-22 12:45 | 6.47304 | 78.86251 | 29462 ft | 445 kts | 52° |
| 2026-04-22 12:45 | 6.49198 | 78.88623 | 28917 ft | 438 kts | 52° |
| 2026-04-22 12:45 | 6.51099 | 78.91001 | 28372 ft | 435 kts | 52° |
| 2026-04-22 12:45 | 6.52990 | 78.93363 | 27821 ft | 432 kts | 52° |
| 2026-04-22 12:46 | 6.54872 | 78.95711 | 27265 ft | 430 kts | 52° |
| 2026-04-22 12:46 | 6.56745 | 78.98047 | 26711 ft | 428 kts | 52° |
| 2026-04-22 12:46 | 6.58610 | 79.00372 | 26164 ft | 426 kts | 52° |
| 2026-04-22 12:46 | 6.60468 | 79.02688 | 25618 ft | 424 kts | 52° |
| 2026-04-22 12:47 | 6.62315 | 79.04993 | 25071 ft | 423 kts | 52° |
| 2026-04-22 12:47 | 6.64137 | 79.07302 | 24522 ft | 421 kts | 52° |
| 2026-04-22 12:47 | 6.65947 | 79.09608 | 24064 ft | 417 kts | 52° |
| 2026-04-22 12:47 | 6.67722 | 79.11872 | 23777 ft | 408 kts | 52° |
| 2026-04-22 12:48 | 6.69474 | 79.14108 | 23258 ft | 406 kts | 52° |
| 2026-04-22 12:48 | 6.71218 | 79.16332 | 22679 ft | 404 kts | 52° |
| 2026-04-22 12:48 | 6.72951 | 79.18543 | 22150 ft | 400 kts | 52° |
| 2026-04-22 12:48 | 6.74666 | 79.20731 | 21638 ft | 396 kts | 52° |
| 2026-04-22 12:49 | 6.76366 | 79.22901 | 21135 ft | 393 kts | 51° |
| 2026-04-22 12:49 | 6.78048 | 79.25046 | 20639 ft | 389 kts | 51° |
| 2026-04-22 12:49 | 6.79715 | 79.27173 | 20141 ft | 385 kts | 51° |
| 2026-04-22 12:49 | 6.81364 | 79.29277 | 19672 ft | 381 kts | 51° |
| 2026-04-22 12:50 | 6.82998 | 79.31363 | 19182 ft | 378 kts | 51° |
| 2026-04-22 12:50 | 6.84619 | 79.33431 | 18714 ft | 374 kts | 51° |
| 2026-04-22 12:50 | 6.86223 | 79.35478 | 18244 ft | 371 kts | 51° |
| 2026-04-22 12:50 | 6.87813 | 79.37508 | 17734 ft | 368 kts | 51° |
| 2026-04-22 12:51 | 6.89391 | 79.39522 | 17176 ft | 365 kts | 51° |
| 2026-04-22 12:51 | 6.90957 | 79.41522 | 16632 ft | 363 kts | 51° |
| 2026-04-22 12:51 | 6.92513 | 79.43509 | 16102 ft | 360 kts | 50° |
| 2026-04-22 12:51 | 6.93595 | 79.44762 | 15761 ft | 357 kts | 44° |
| 2026-04-22 12:52 | 6.95452 | 79.46406 | 15249 ft | 354 kts | 38° |
| 2026-04-22 12:52 | 6.98027 | 79.48449 | 14567 ft | 351 kts | 37° |
| 2026-04-22 12:52 | 6.99296 | 79.49444 | 14235 ft | 349 kts | 37° |
| 2026-04-22 12:52 | 7.01204 | 79.50940 | 13753 ft | 346 kts | 37° |
| 2026-04-22 12:53 | 7.03097 | 79.52428 | 13223 ft | 344 kts | 37° |
| 2026-04-22 12:53 | 7.04972 | 79.53906 | 12720 ft | 340 kts | 37° |
| 2026-04-22 12:53 | 7.06825 | 79.55369 | 12215 ft | 337 kts | 37° |
| 2026-04-22 12:53 | 7.08658 | 79.56817 | 11727 ft | 333 kts | 37° |
| 2026-04-22 12:54 | 7.10473 | 79.58252 | 11222 ft | 330 kts | 37° |
| 2026-04-22 12:54 | 7.12268 | 79.59672 | 10733 ft | 327 kts | 37° |
| 2026-04-22 12:54 | 7.14051 | 79.61084 | 10260 ft | 324 kts | 37° |
| 2026-04-22 12:54 | 7.15795 | 79.62464 | 10018 ft | 313 kts | 37° |
| 2026-04-22 12:55 | 7.17471 | 79.63793 | 9824 ft | 301 kts | 38° |
| 2026-04-22 12:55 | 7.19092 | 79.65076 | 9516 ft | 293 kts | 37° |
| 2026-04-22 12:55 | 7.20687 | 79.66339 | 8979 ft | 290 kts | 38° |
| 2026-04-22 12:55 | 7.22269 | 79.67591 | 8342 ft | 290 kts | 38° |
| 2026-04-22 12:56 | 7.23853 | 79.68845 | 7891 ft | 288 kts | 38° |
| 2026-04-22 12:56 | 7.25422 | 79.70090 | 7456 ft | 286 kts | 38° |
| 2026-04-22 12:56 | 7.26991 | 79.71336 | 6904 ft | 289 kts | 39° |
| 2026-04-22 12:56 | 7.28554 | 79.72578 | 6583 ft | 283 kts | 38° |
| 2026-04-22 12:57 | 7.30087 | 79.73798 | 6194 ft | 279 kts | 39° |
| 2026-04-22 12:57 | 7.31583 | 79.74984 | 5999 ft | 268 kts | 39° |
| 2026-04-22 12:57 | 7.33046 | 79.76142 | 5545 ft | 268 kts | 39° |
| 2026-04-22 12:57 | 7.34513 | 79.77301 | 5130 ft | 267 kts | 39° |
| 2026-04-22 12:58 | 7.35962 | 79.78447 | 4778 ft | 263 kts | 39° |
| 2026-04-22 12:58 | 7.37397 | 79.79582 | 4417 ft | 261 kts | 39° |
| 2026-04-22 12:58 | 7.38814 | 79.80714 | 4007 ft | 260 kts | 41° |
| 2026-04-22 12:58 | 7.39960 | 79.82087 | 3706 ft | 254 kts | 63° |
| 2026-04-22 12:59 | 7.40358 | 79.83780 | 3450 ft | 246 kts | 93° |
| 2026-04-22 12:59 | 7.39921 | 79.85366 | 3336 ft | 234 kts | 118° |
| 2026-04-22 12:59 | 7.39044 | 79.86758 | 3223 ft | 233 kts | 125° |
| 2026-04-22 12:59 | 7.38109 | 79.88066 | 3005 ft | 233 kts | 126° |
| 2026-04-22 13:00 | 7.37167 | 79.89364 | 2775 ft | 225 kts | 127° |
| 2026-04-22 13:00 | 7.36250 | 79.90601 | 2548 ft | 216 kts | 131° |
| 2026-04-22 13:00 | 7.35148 | 79.91587 | 2217 ft | 211 kts | 149° |
| 2026-04-22 13:00 | 7.33871 | 79.92288 | 1840 ft | 208 kts | 155° |
| 2026-04-22 13:01 | 7.32581 | 79.92911 | 1555 ft | 201 kts | 156° |
| 2026-04-22 13:01 | 7.31365 | 79.93493 | 1500 ft | 188 kts | 157° |
| 2026-04-22 13:01 | 7.30196 | 79.94053 | 1508 ft | 184 kts | 156° |
| 2026-04-22 13:01 | 7.29034 | 79.94609 | 1495 ft | 186 kts | 156° |
| 2026-04-22 13:02 | 7.27816 | 79.94988 | 1486 ft | 181 kts | 184° |
| 2026-04-22 13:02 | 7.26689 | 79.94696 | 1487 ft | 153 kts | 200° |
| 2026-04-22 13:02 | 7.25794 | 79.94231 | 1480 ft | 137 kts | 213° |
| 2026-04-22 13:02 | 7.25046 | 79.93679 | 1368 ft | 132 kts | 216° |
| 2026-04-22 13:03 | 7.24309 | 79.93134 | 1202 ft | 131 kts | 217° |
| 2026-04-22 13:03 | 7.23589 | 79.92577 | 1028 ft | 130 kts | 216° |
| 2026-04-22 13:03 | 7.22868 | 79.92025 | 869 ft | 132 kts | 217° |
| 2026-04-22 13:03 | 7.22138 | 79.91466 | 710 ft | 133 kts | 217° |
| 2026-04-22 13:04 | 7.21409 | 79.90905 | 563 ft | 131 kts | 218° |
| 2026-04-22 13:04 | 7.20679 | 79.90342 | 450 ft | 136 kts | 219° |
| 2026-04-22 13:04 | 7.19881 | 79.89715 | 242 ft | 149 kts | 217° |
| 2026-04-22 13:04 | 7.19089 | 79.89114 | 43 ft | 133 kts | 217° |
| 2026-04-22 13:05 | 7.18425 | 79.88611 | 31 ft | 103 kts | 217° |
| 2026-04-22 13:05 | 7.17960 | 79.88257 | 32 ft | 53 kts | 217° |
| 2026-04-22 13:05 | 7.17772 | 79.88113 | 34 ft | 31 kts | 219° |
| 2026-04-22 13:05 | 7.17605 | 79.87986 | 31 ft | 20 kts | 216° |
| 2026-04-22 13:06 | 7.17538 | 79.87941 | 33 ft | 12 kts | 200° |
| 2026-04-22 13:06 | 7.17470 | 79.87976 | 32 ft | 12 kts | 130° |
| 2026-04-22 13:06 | 7.17450 | 79.88003 | 31 ft | 0 kts | 126° |
| 2026-04-22 13:07 | 7.17448 | 79.88006 | 31 ft | 2 kts | 126° |
| 2026-04-22 13:07 | 7.17430 | 79.88033 | 31 ft | 9 kts | 118° |
| 2026-04-22 13:07 | 7.17465 | 79.88105 | 30 ft | 15 kts | 37° |
| 2026-04-22 13:07 | 7.17547 | 79.88167 | 31 ft | 15 kts | 37° |
| 2026-04-22 13:08 | 7.17629 | 79.88230 | 31 ft | 15 kts | 37° |
| 2026-04-22 13:08 | 7.17711 | 79.88292 | 31 ft | 15 kts | 37° |
| 2026-04-22 13:08 | 7.17793 | 79.88355 | 31 ft | 15 kts | 37° |
| 2026-04-22 13:08 | 7.17853 | 79.88434 | 30 ft | 14 kts | 103° |
| 2026-04-22 13:09 | 7.17799 | 79.88515 | 30 ft | 14 kts | 127° |
| 2026-04-22 13:09 | 7.17738 | 79.88595 | 30 ft | 14 kts | 126° |
| 2026-04-22 13:09 | 7.17682 | 79.88618 | 30 ft | 9 kts | 212° |
| 2026-04-22 13:09 | 7.17631 | 79.88579 | 30 ft | 7 kts | 219° |
| 2026-04-22 13:10 | 7.17622 | 79.88572 | 30 ft | 0 kts | 216° |